sensor_id;sensor_type;location;lat;lon;timestamp;pressure;altitude;pressure_sealevel;temperature;humidity
50057;BME280;36875;49.468;11.200;2023-05-23T00:02:07;97562.88;;;21.40;46.72
50057;BME280;36875;49.468;11.200;2023-05-23T00:04:33;97564.00;;;21.38;46.73
50057;BME280;36875;49.468;11.200;2023-05-23T00:07:01;97569.47;;;21.38;46.51
50057;BME280;36875;49.468;11.200;2023-05-23T00:09:26;97568.34;;;21.40;47.05
50057;BME280;36875;49.468;11.200;2023-05-23T00:11:53;97569.16;;;21.40;46.56
50057;BME280;36875;49.468;11.200;2023-05-23T00:14:18;97574.94;;;21.38;46.76
50057;BME280;36875;49.468;11.200;2023-05-23T00:16:44;97574.94;;;21.38;46.94
50057;BME280;36875;49.468;11.200;2023-05-23T00:19:10;97577.69;;;21.38;46.79
50057;BME280;36875;49.468;11.200;2023-05-23T00:21:39;97577.69;;;21.38;46.91
50057;BME280;36875;49.468;11.200;2023-05-23T00:24:04;97579.63;;;21.38;46.72
50057;BME280;36875;49.468;11.200;2023-05-23T00:26:31;97574.47;;;21.36;46.75
50057;BME280;36875;49.468;11.200;2023-05-23T00:28:58;97574.94;;;21.38;46.78
50057;BME280;36875;49.468;11.200;2023-05-23T00:31:23;97570.94;;;21.36;46.69
50057;BME280;36875;49.468;11.200;2023-05-23T00:33:49;97565.50;;;21.27;46.66
50057;BME280;36875;49.468;11.200;2023-05-23T00:36:14;97579.16;;;21.36;46.87
50057;BME280;36875;49.468;11.200;2023-05-23T00:38:40;97574.47;;;21.36;46.51
50057;BME280;36875;49.468;11.200;2023-05-23T00:41:05;97581.91;;;21.36;46.91
50057;BME280;36875;49.468;11.200;2023-05-23T00:43:31;97584.47;;;21.32;46.71
50057;BME280;36875;49.468;11.200;2023-05-23T00:45:59;97588.50;;;21.35;46.57
50057;BME280;36875;49.468;11.200;2023-05-23T00:48:25;97588.34;;;21.31;46.66
50057;BME280;36875;49.468;11.200;2023-05-23T00:50:51;97590.75;;;21.33;46.87
50057;BME280;36875;49.468;11.200;2023-05-23T00:53:17;97593.97;;;21.35;46.86
50057;BME280;36875;49.468;11.200;2023-05-23T00:55:43;97598.63;;;21.34;46.59
50057;BME280;36875;49.468;11.200;2023-05-23T00:58:09;97602.50;;;21.33;46.60
50057;BME280;36875;49.468;11.200;2023-05-23T01:00:35;97592.22;;;21.30;46.65
50057;BME280;36875;49.468;11.200;2023-05-23T01:03:04;97600.06;;;21.32;46.80
50057;BME280;36875;49.468;11.200;2023-05-23T01:05:29;97607.97;;;21.33;46.54
50057;BME280;36875;49.468;11.200;2023-05-23T01:07:55;97607.50;;;21.31;46.76
50057;BME280;36875;49.468;11.200;2023-05-23T01:10:23;97605.91;;;21.30;46.62
50057;BME280;36875;49.468;11.200;2023-05-23T01:12:57;97599.28;;;21.31;46.65
50057;BME280;36875;49.468;11.200;2023-05-23T01:15:28;97610.22;;;21.31;46.70
50057;BME280;36875;49.468;11.200;2023-05-23T01:17:59;97602.03;;;21.31;46.72
50057;BME280;36875;49.468;11.200;2023-05-23T01:20:33;97602.03;;;21.31;46.64
50057;BME280;36875;49.468;11.200;2023-05-23T01:23:09;97601.22;;;21.31;46.53
50057;BME280;36875;49.468;11.200;2023-05-23T01:25:49;97596.06;;;21.29;46.83
50057;BME280;36875;49.468;11.200;2023-05-23T01:28:27;97597.69;;;21.30;46.82
50057;BME280;36875;49.468;11.200;2023-05-23T01:30:57;97586.25;;;21.28;46.60
50057;BME280;36875;49.468;11.200;2023-05-23T01:33:24;97590.59;;;21.29;46.67
50057;BME280;36875;49.468;11.200;2023-05-23T01:35:49;97586.75;;;21.30;46.74
50057;BME280;36875;49.468;11.200;2023-05-23T01:38:15;97589.47;;;21.30;46.77
50057;BME280;36875;49.468;11.200;2023-05-23T01:40:40;97585.13;;;21.29;46.87
50057;BME280;36875;49.468;11.200;2023-05-23T01:43:06;97588.97;;;21.28;46.62
50057;BME280;36875;49.468;11.200;2023-05-23T01:45:34;97583.50;;;21.28;46.66
50057;BME280;36875;49.468;11.200;2023-05-23T01:48:00;97586.25;;;21.28;46.65
50057;BME280;36875;49.468;11.200;2023-05-23T01:50:27;97594.44;;;21.28;46.91
50057;BME280;36875;49.468;11.200;2023-05-23T01:52:53;97594.44;;;21.28;46.75
50057;BME280;36875;49.468;11.200;2023-05-23T01:55:20;97592.88;;;21.27;46.79
50057;BME280;36875;49.468;11.200;2023-05-23T01:57:49;97582.56;;;21.24;46.63
50057;BME280;36875;49.468;11.200;2023-05-23T02:00:16;97601.88;;;21.28;46.53
50057;BME280;36875;49.468;11.200;2023-05-23T02:02:43;97603.81;;;21.27;46.76
50057;BME280;36875;49.468;11.200;2023-05-23T02:05:09;97601.41;;;21.26;46.73
50057;BME280;36875;49.468;11.200;2023-05-23T02:07:35;97596.72;;;21.26;46.80
50057;BME280;36875;49.468;11.200;2023-05-23T02:10:01;97590.44;;;21.26;46.71
50057;BME280;36875;49.468;11.200;2023-05-23T02:12:27;97587.25;;;21.24;46.87
50057;BME280;36875;49.468;11.200;2023-05-23T02:14:53;97595.13;;;21.25;46.57
50057;BME280;36875;49.468;11.200;2023-05-23T02:17:19;97591.25;;;21.26;46.69
50057;BME280;36875;49.468;11.200;2023-05-23T02:19:47;97597.88;;;21.25;46.58
50057;BME280;36875;49.468;11.200;2023-05-23T02:22:13;97595.13;;;21.25;46.65
50057;BME280;36875;49.468;11.200;2023-05-23T02:24:38;97593.50;;;21.24;46.71
50057;BME280;36875;49.468;11.200;2023-05-23T02:27:04;97599.81;;;21.25;46.73
50057;BME280;36875;49.468;11.200;2023-05-23T02:29:30;97598.97;;;21.24;46.92
50057;BME280;36875;49.468;11.200;2023-05-23T02:31:55;97599.81;;;21.25;46.59
50057;BME280;36875;49.468;11.200;2023-05-23T02:34:20;97598.97;;;21.24;46.62
50057;BME280;36875;49.468;11.200;2023-05-23T02:36:47;97588.03;;;21.24;46.70
50057;BME280;36875;49.468;11.200;2023-05-23T02:39:13;97586.44;;;21.23;46.71
50057;BME280;36875;49.468;11.200;2023-05-23T02:41:39;97591.09;;;21.23;46.59
50057;BME280;36875;49.468;11.200;2023-05-23T02:44:04;97598.50;;;21.22;46.90
50057;BME280;36875;49.468;11.200;2023-05-23T02:46:30;97589.81;;;21.20;46.75
50057;BME280;36875;49.468;11.200;2023-05-23T02:48:55;97605.91;;;21.22;46.56
50057;BME280;36875;49.468;11.200;2023-05-23T02:51:21;97606.72;;;21.22;46.59
50057;BME280;36875;49.468;11.200;2023-05-23T02:53:47;97612.19;;;21.22;46.88
50057;BME280;36875;49.468;11.200;2023-05-23T02:56:13;97616.88;;;21.22;46.71
50057;BME280;36875;49.468;11.200;2023-05-23T02:58:40;97618.00;;;21.21;46.78
50057;BME280;36875;49.468;11.200;2023-05-23T03:01:06;97619.94;;;21.20;46.78
50057;BME280;36875;49.468;11.200;2023-05-23T03:03:32;97617.19;;;21.20;46.84
50057;BME280;36875;49.468;11.200;2023-05-23T03:05:58;97605.94;;;21.13;46.67
50057;BME280;36875;49.468;11.200;2023-05-23T03:08:23;97612.69;;;21.15;46.93
50057;BME280;36875;49.468;11.200;2023-05-23T03:10:50;97614.94;;;21.13;46.75
50057;BME280;36875;49.468;11.200;2023-05-23T03:13:16;97622.97;;;21.18;46.72
50057;BME280;36875;49.468;11.200;2023-05-23T03:15:41;97623.78;;;21.19;46.88
50057;BME280;36875;49.468;11.200;2023-05-23T03:18:07;97624.59;;;21.20;46.85
50057;BME280;36875;49.468;11.200;2023-05-23T03:20:32;97621.03;;;21.19;47.00
50057;BME280;36875;49.468;11.200;2023-05-23T03:23:00;97624.94;;;21.18;46.74
50057;BME280;36875;49.468;11.200;2023-05-23T03:25:25;97622.19;;;21.18;46.69
50057;BME280;36875;49.468;11.200;2023-05-23T03:27:52;97621.25;;;21.14;46.87
50057;BME280;36875;49.468;11.200;2023-05-23T03:30:19;97626.50;;;21.19;46.67
50057;BME280;36875;49.468;11.200;2023-05-23T03:32:45;97629.59;;;21.17;46.79
50057;BME280;36875;49.468;11.200;2023-05-23T03:35:10;97632.34;;;21.17;46.51
50057;BME280;36875;49.468;11.200;2023-05-23T03:37:36;97631.50;;;21.17;46.92
50057;BME280;36875;49.468;11.200;2023-05-23T03:40:02;97630.41;;;21.18;46.71
50057;BME280;36875;49.468;11.200;2023-05-23T03:42:29;97638.13;;;21.16;46.67
50057;BME280;36875;49.468;11.200;2023-05-23T03:44:55;97642.47;;;21.17;46.73
50057;BME280;36875;49.468;11.200;2023-05-23T03:47:22;97647.94;;;21.17;46.53
50057;BME280;36875;49.468;11.200;2023-05-23T03:49:48;97647.13;;;21.16;46.68
50057;BME280;36875;49.468;11.200;2023-05-23T03:52:14;97653.41;;;21.17;46.67
50057;BME280;36875;49.468;11.200;2023-05-23T03:54:39;97658.09;;;21.16;46.60
50057;BME280;36875;49.468;11.200;2023-05-23T03:57:05;97649.06;;;21.16;46.63
50057;BME280;36875;49.468;11.200;2023-05-23T03:59:31;97652.47;;;21.13;46.63
50057;BME280;36875;49.468;11.200;2023-05-23T04:01:58;97651.81;;;21.16;46.92
50057;BME280;36875;49.468;11.200;2023-05-23T04:04:25;97651.00;;;21.15;46.99
50057;BME280;36875;49.468;11.200;2023-05-23T04:06:51;97645.53;;;21.15;46.76
50057;BME280;36875;49.468;11.200;2023-05-23T04:09:16;97643.94;;;21.14;46.77
50057;BME280;36875;49.468;11.200;2023-05-23T04:11:42;97641.19;;;21.14;46.92
50057;BME280;36875;49.468;11.200;2023-05-23T04:14:07;97648.25;;;21.15;46.64
50057;BME280;36875;49.468;11.200;2023-05-23T04:16:34;97643.59;;;21.16;46.61
50057;BME280;36875;49.468;11.200;2023-05-23T04:19:01;97651.00;;;21.15;46.74
50057;BME280;36875;49.468;11.200;2023-05-23T04:21:29;97655.66;;;21.15;46.57
50057;BME280;36875;49.468;11.200;2023-05-23T04:23:55;97656.47;;;21.15;46.74
50057;BME280;36875;49.468;11.200;2023-05-23T04:26:21;97659.53;;;21.14;46.92
50057;BME280;36875;49.468;11.200;2023-05-23T04:28:46;97662.28;;;21.14;46.83
50057;BME280;36875;49.468;11.200;2023-05-23T04:31:13;97667.41;;;21.15;46.61
50057;BME280;36875;49.468;11.200;2023-05-23T04:33:38;97657.59;;;21.14;46.92
50057;BME280;36875;49.468;11.200;2023-05-23T04:36:06;97656.81;;;21.14;46.65
50057;BME280;36875;49.468;11.200;2023-05-23T04:38:34;97666.63;;;21.15;46.86
50057;BME280;36875;49.468;11.200;2023-05-23T04:41:03;97676.75;;;21.14;46.97
50057;BME280;36875;49.468;11.200;2023-05-23T04:43:28;97675.97;;;21.14;46.69
50057;BME280;36875;49.468;11.200;2023-05-23T04:45:54;97678.34;;;21.15;46.76
50057;BME280;36875;49.468;11.200;2023-05-23T04:48:19;97668.06;;;21.12;46.72
50057;BME280;36875;49.468;11.200;2023-05-23T04:50:46;97684.50;;;21.12;46.74
50057;BME280;36875;49.468;11.200;2023-05-23T04:53:14;97680.63;;;21.13;46.87
50057;BME280;36875;49.468;11.200;2023-05-23T04:55:39;97688.50;;;21.15;46.81
50057;BME280;36875;49.468;11.200;2023-05-23T04:58:05;97691.25;;;21.15;46.87
50057;BME280;36875;49.468;11.200;2023-05-23T05:00:32;97695.59;;;21.16;46.99
50057;BME280;36875;49.468;11.200;2023-05-23T05:02:57;97695.59;;;21.16;46.94
50057;BME280;36875;49.468;11.200;2023-05-23T05:05:23;97700.25;;;21.15;46.86
50057;BME280;36875;49.468;11.200;2023-05-23T05:07:48;97701.06;;;21.16;46.85
50057;BME280;36875;49.468;11.200;2023-05-23T05:10:15;97698.16;;;21.21;46.78
50057;BME280;36875;49.468;11.200;2023-05-23T05:12:42;97692.03;;;21.24;46.81
50057;BME280;36875;49.468;11.200;2023-05-23T05:15:08;97697.97;;;21.26;46.70
50057;BME280;36875;49.468;11.200;2023-05-23T05:17:34;97698.47;;;21.28;46.83
50057;BME280;36875;49.468;11.200;2023-05-23T05:20:01;97700.06;;;21.29;46.86
50057;BME280;36875;49.468;11.200;2023-05-23T05:22:30;97701.84;;;21.34;47.18
50057;BME280;36875;49.468;11.200;2023-05-23T05:24:55;97703.28;;;21.31;47.19
50057;BME280;36875;49.468;11.200;2023-05-23T05:27:22;97709.25;;;21.33;47.00
50057;BME280;36875;49.468;11.200;2023-05-23T05:29:48;97710.06;;;21.34;47.63
50057;BME280;36875;49.468;11.200;2023-05-23T05:32:14;97715.34;;;21.39;47.41
50057;BME280;36875;49.468;11.200;2023-05-23T05:34:39;97720.03;;;21.38;47.47
50057;BME280;36875;49.468;11.200;2023-05-23T05:37:07;97706.81;;;21.41;47.17
50057;BME280;36875;49.468;11.200;2023-05-23T05:39:32;97705.06;;;21.45;47.24
50057;BME280;36875;49.468;11.200;2023-05-23T05:41:58;97707.78;;;21.45;47.13
50057;BME280;36875;49.468;11.200;2023-05-23T05:44:26;97704.72;;;21.46;47.38
50057;BME280;36875;49.468;11.200;2023-05-23T05:46:52;97712.63;;;21.48;47.24
50057;BME280;36875;49.468;11.200;2023-05-23T05:49:17;97710.22;;;21.46;47.71
50057;BME280;36875;49.468;11.200;2023-05-23T05:51:43;97713.28;;;21.45;47.86
50057;BME280;36875;49.468;11.200;2023-05-23T05:54:08;97706.81;;;21.41;48.27
50057;BME280;36875;49.468;11.200;2023-05-23T05:56:34;97711.50;;;21.40;48.07
50057;BME280;36875;49.468;11.200;2023-05-23T05:59:00;97716.16;;;21.40;48.29
50057;BME280;36875;49.468;11.200;2023-05-23T06:01:27;97712.75;;;21.43;48.56
50057;BME280;36875;49.468;11.200;2023-05-23T06:03:52;97712.16;;;21.46;49.03
50057;BME280;36875;49.468;11.200;2023-05-23T06:06:18;97712.63;;;21.48;48.89
50057;BME280;36875;49.468;11.200;2023-05-23T06:08:44;97703.63;;;21.47;48.74
50057;BME280;36875;49.468;11.200;2023-05-23T06:11:09;97711.81;;;21.56;48.42
50057;BME280;36875;49.468;11.200;2023-05-23T06:13:36;97716.63;;;21.59;48.23
50057;BME280;36875;49.468;11.200;2023-05-23T06:16:01;97713.88;;;21.59;48.53
50057;BME280;36875;49.468;11.200;2023-05-23T06:18:28;97705.34;;;21.61;48.61
50057;BME280;36875;49.468;11.200;2023-05-23T06:20:54;97709.34;;;21.63;48.56
50057;BME280;36875;49.468;11.200;2023-05-23T06:23:20;97719.66;;;21.66;48.25
50057;BME280;36875;49.468;11.200;2023-05-23T06:25:45;97714.66;;;21.68;48.32
50057;BME280;36875;49.468;11.200;2023-05-23T06:28:11;97709.66;;;21.70;48.38
50057;BME280;36875;49.468;11.200;2023-05-23T06:30:37;97712.59;;;21.65;48.06
50057;BME280;36875;49.468;11.200;2023-05-23T06:33:03;97716.16;;;21.57;48.57
50057;BME280;36875;49.468;11.200;2023-05-23T06:35:29;97722.78;;;21.56;48.34
50057;BME280;36875;49.468;11.200;2023-05-23T06:37:55;97721.16;;;21.55;48.58
50057;BME280;36875;49.468;11.200;2023-05-23T06:40:20;97725.50;;;21.56;48.59
50057;BME280;36875;49.468;11.200;2023-05-23T06:42:46;97723.72;;;21.60;48.31
50057;BME280;36875;49.468;11.200;2023-05-23T06:45:12;97727.09;;;21.66;48.29
50057;BME280;36875;49.468;11.200;2023-05-23T06:47:37;97725.94;;;21.67;48.10
50057;BME280;36875;49.468;11.200;2023-05-23T06:50:03;97733.84;;;21.68;48.07
50057;BME280;36875;49.468;11.200;2023-05-23T06:52:30;97730.78;;;21.70;48.14
50057;BME280;36875;49.468;11.200;2023-05-23T06:54:56;97729.66;;;21.71;48.01
50057;BME280;36875;49.468;11.200;2023-05-23T06:57:21;97731.56;;;21.70;47.94
50057;BME280;36875;49.468;11.200;2023-05-23T06:59:47;97733.50;;;21.70;47.90
50057;BME280;36875;49.468;11.200;2023-05-23T07:02:12;97740.25;;;21.72;47.89
50057;BME280;36875;49.468;11.200;2023-05-23T07:04:38;97744.16;;;21.71;47.85
50057;BME280;36875;49.468;11.200;2023-05-23T07:07:03;97745.47;;;21.65;47.87
50057;BME280;36875;49.468;11.200;2023-05-23T07:09:30;97754.00;;;21.64;47.93
50057;BME280;36875;49.468;11.200;2023-05-23T07:11:56;97760.28;;;21.64;48.03
50057;BME280;36875;49.468;11.200;2023-05-23T07:14:21;97758.19;;;21.61;47.94
50057;BME280;36875;49.468;11.200;2023-05-23T07:16:47;97757.69;;;21.59;47.98
50057;BME280;36875;49.468;11.200;2023-05-23T07:19:12;97765.28;;;21.62;47.94
50057;BME280;36875;49.468;11.200;2023-05-23T07:21:38;97758.81;;;21.67;47.96
50057;BME280;36875;49.468;11.200;2023-05-23T07:24:04;97754.31;;;21.71;47.96
50057;BME280;36875;49.468;11.200;2023-05-23T07:26:31;97762.84;;;21.69;47.86
50057;BME280;36875;49.468;11.200;2023-05-23T07:28:57;97761.88;;;21.65;47.85
50057;BME280;36875;49.468;11.200;2023-05-23T07:31:22;97763.66;;;21.61;48.07
50057;BME280;36875;49.468;11.200;2023-05-23T07:33:48;97770.28;;;21.60;47.96
50057;BME280;36875;49.468;11.200;2023-05-23T07:36:14;97768.66;;;21.59;48.04
50057;BME280;36875;49.468;11.200;2023-05-23T07:38:39;97767.06;;;21.58;48.07
50057;BME280;36875;49.468;11.200;2023-05-23T07:41:05;97760.59;;;21.54;48.01
50057;BME280;36875;49.468;11.200;2023-05-23T07:43:31;97772.84;;;21.56;47.93
50057;BME280;36875;49.468;11.200;2023-05-23T07:45:57;97768.19;;;21.57;47.98
50057;BME280;36875;49.468;11.200;2023-05-23T07:48:22;97771.22;;;21.55;48.08
50057;BME280;36875;49.468;11.200;2023-05-23T07:50:48;97768.34;;;21.52;48.00
50057;BME280;36875;49.468;11.200;2023-05-23T07:53:14;97767.22;;;21.53;48.07
50057;BME280;36875;49.468;11.200;2023-05-23T07:55:39;97776.22;;;21.53;48.06
50057;BME280;36875;49.468;11.200;2023-05-23T07:58:05;97776.22;;;21.53;47.94
50057;BME280;36875;49.468;11.200;2023-05-23T08:00:32;97774.97;;;21.51;47.87
50057;BME280;36875;49.468;11.200;2023-05-23T08:02:58;97774.47;;;21.49;48.00
50057;BME280;36875;49.468;11.200;2023-05-23T08:05:23;97775.44;;;21.53;47.75
50057;BME280;36875;49.468;11.200;2023-05-23T08:07:49;97785.59;;;21.52;47.80
50057;BME280;36875;49.468;11.200;2023-05-23T08:10:14;97788.34;;;21.52;47.87
50057;BME280;36875;49.468;11.200;2023-05-23T08:12:40;97780.44;;;21.51;47.77
50057;BME280;36875;49.468;11.200;2023-05-23T08:15:06;97787.97;;;21.54;47.80
50057;BME280;36875;49.468;11.200;2023-05-23T08:17:33;97785.59;;;21.52;47.77
50057;BME280;36875;49.468;11.200;2023-05-23T08:19:59;97782.50;;;21.54;47.93
50057;BME280;36875;49.468;11.200;2023-05-23T08:22:25;97784.13;;;21.55;47.70
50057;BME280;36875;49.468;11.200;2023-05-23T08:24:51;97775.91;;;21.55;47.74
50057;BME280;36875;49.468;11.200;2023-05-23T08:27:16;97780.28;;;21.56;47.98
50057;BME280;36875;49.468;11.200;2023-05-23T08:29:42;97784.13;;;21.55;47.91
50057;BME280;36875;49.468;11.200;2023-05-23T08:32:08;97785.59;;;21.52;47.72
50057;BME280;36875;49.468;11.200;2023-05-23T08:34:35;97784.13;;;21.55;47.58
50057;BME280;36875;49.468;11.200;2023-05-23T08:37:00;97780.59;;;21.54;47.64
50057;BME280;36875;49.468;11.200;2023-05-23T08:39:26;97780.28;;;21.56;47.90
50057;BME280;36875;49.468;11.200;2023-05-23T08:41:51;97781.84;;;21.66;47.70
50057;BME280;36875;49.468;11.200;2023-05-23T08:44:17;97778.97;;;21.62;47.47
50057;BME280;36875;49.468;11.200;2023-05-23T08:46:44;97775.75;;;21.60;47.76
50057;BME280;36875;49.468;11.200;2023-05-23T08:49:10;97780.75;;;21.58;47.53
50057;BME280;36875;49.468;11.200;2023-05-23T08:51:41;97783.50;;;21.58;47.74
50057;BME280;36875;49.468;11.200;2023-05-23T08:54:07;97796.03;;;21.59;47.79
50057;BME280;36875;49.468;11.200;2023-05-23T08:56:35;97791.69;;;21.58;47.67
50057;BME280;36875;49.468;11.200;2023-05-23T08:59:01;97791.69;;;21.58;47.66
50057;BME280;36875;49.468;11.200;2023-05-23T09:01:28;97794.44;;;21.58;47.78
50057;BME280;36875;49.468;11.200;2023-05-23T09:03:54;97792.97;;;21.61;47.71
50057;BME280;36875;49.468;11.200;2023-05-23T09:06:20;97796.34;;;21.66;47.38
50057;BME280;36875;49.468;11.200;2023-05-23T09:08:48;97800.03;;;21.70;47.80
50057;BME280;36875;49.468;11.200;2023-05-23T09:11:13;97800.72;;;21.67;47.55
50057;BME280;36875;49.468;11.200;2023-05-23T09:13:39;97798.59;;;21.64;47.68
50057;BME280;36875;49.468;11.200;2023-05-23T09:16:06;97803.94;;;21.61;47.47
50057;BME280;36875;49.468;11.200;2023-05-23T09:18:34;97804.72;;;21.61;47.64
50057;BME280;36875;49.468;11.200;2023-05-23T09:21:01;97812.94;;;21.61;47.59
50057;BME280;36875;49.468;11.200;2023-05-23T09:23:29;97810.56;;;21.60;47.63
50057;BME280;36875;49.468;11.200;2023-05-23T09:25:56;97811.81;;;21.62;47.56
50057;BME280;36875;49.468;11.200;2023-05-23T09:28:21;97810.19;;;21.61;47.79
50057;BME280;36875;49.468;11.200;2023-05-23T09:30:56;97809.72;;;21.59;47.55
50057;BME280;36875;49.468;11.200;2023-05-23T09:33:22;97808.59;;;21.60;47.63
50057;BME280;36875;49.468;11.200;2023-05-23T09:35:48;97811.03;;;21.62;47.56
50057;BME280;36875;49.468;11.200;2023-05-23T09:38:13;97804.72;;;21.61;47.57
50057;BME280;36875;49.468;11.200;2023-05-23T09:40:43;97810.03;;;21.66;47.42
50057;BME280;36875;49.468;11.200;2023-05-23T09:43:10;97813.09;;;21.73;47.21
50057;BME280;36875;49.468;11.200;2023-05-23T09:45:36;97817.28;;;21.71;47.46
50057;BME280;36875;49.468;11.200;2023-05-23T09:48:01;97815.03;;;21.73;47.29
50057;BME280;36875;49.468;11.200;2023-05-23T09:50:30;97811.97;;;21.74;47.38
50057;BME280;36875;49.468;11.200;2023-05-23T09:52:57;97814.88;;;21.69;47.53
50057;BME280;36875;49.468;11.200;2023-05-23T09:55:23;97815.69;;;21.61;47.43
50057;BME280;36875;49.468;11.200;2023-05-23T09:57:52;97823.88;;;21.70;47.60
50057;BME280;36875;49.468;11.200;2023-05-23T10:00:22;97818.72;;;21.77;47.22
50057;BME280;36875;49.468;11.200;2023-05-23T10:03:04;97820.50;;;21.82;47.23
50057;BME280;36875;49.468;11.200;2023-05-23T10:05:34;97811.47;;;21.72;47.06
50057;BME280;36875;49.468;11.200;2023-05-23T10:08:01;97832.75;;;21.75;47.33
50057;BME280;36875;49.468;11.200;2023-05-23T10:10:31;97832.25;;;21.73;47.42
50057;BME280;36875;49.468;11.200;2023-05-23T10:12:58;97838.84;;;21.72;47.35
50057;BME280;36875;49.468;11.200;2023-05-23T10:15:30;97824.03;;;21.73;47.26
50057;BME280;36875;49.468;11.200;2023-05-23T10:18:02;97822.09;;;21.74;47.39
50057;BME280;36875;49.468;11.200;2023-05-23T10:20:30;97826.00;;;21.73;47.40
50057;BME280;36875;49.468;11.200;2023-05-23T10:22:59;97821.47;;;21.68;47.50
50057;BME280;36875;49.468;11.200;2023-05-23T10:25:25;97820.34;;;21.69;47.49
50057;BME280;36875;49.468;11.200;2023-05-23T10:27:54;97832.59;;;21.72;47.35
50057;BME280;36875;49.468;11.200;2023-05-23T10:30:23;97834.22;;;21.73;47.36
50057;BME280;36875;49.468;11.200;2023-05-23T10:32:50;97824.38;;;21.72;47.55
50057;BME280;36875;49.468;11.200;2023-05-23T10:35:22;97825.47;;;21.80;47.24
50057;BME280;36875;49.468;11.200;2023-05-23T10:37:55;97833.84;;;21.83;47.34
50057;BME280;36875;49.468;11.200;2023-05-23T10:40:33;97834.53;;;21.80;47.32
50057;BME280;36875;49.468;11.200;2023-05-23T10:43:05;97838.84;;;21.81;47.46
50057;BME280;36875;49.468;11.200;2023-05-23T10:45:39;97838.69;;;21.78;47.40
50057;BME280;36875;49.468;11.200;2023-05-23T10:48:19;97841.44;;;21.78;47.45
50057;BME280;36875;49.468;11.200;2023-05-23T10:50:44;97841.44;;;21.78;47.44
50057;BME280;36875;49.468;11.200;2023-05-23T10:53:15;97841.13;;;21.79;47.49
50057;BME280;36875;49.468;11.200;2023-05-23T10:55:40;97840.47;;;21.82;47.45
50057;BME280;36875;49.468;11.200;2023-05-23T10:58:15;97843.53;;;21.81;47.26
50057;BME280;36875;49.468;11.200;2023-05-23T11:00:50;97843.06;;;21.79;47.21
50057;BME280;36875;49.468;11.200;2023-05-23T11:03:17;97845.47;;;21.80;47.40
50057;BME280;36875;49.468;11.200;2023-05-23T11:05:47;97856.13;;;21.82;47.71
50057;BME280;36875;49.468;11.200;2023-05-23T11:08:18;97851.13;;;21.84;48.01
50057;BME280;36875;49.468;11.200;2023-05-23T11:10:51;97865.28;;;21.86;47.75
50057;BME280;36875;49.468;11.200;2023-05-23T11:13:18;97861.88;;;21.89;47.90
50057;BME280;36875;49.468;11.200;2023-05-23T11:15:44;97870.59;;;21.91;48.04
50057;BME280;36875;49.468;11.200;2023-05-23T11:18:20;97864.97;;;21.87;48.13
50057;BME280;36875;49.468;11.200;2023-05-23T11:20:46;97852.06;;;21.88;48.01
50057;BME280;36875;49.468;11.200;2023-05-23T11:23:12;97859.44;;;21.96;47.88
50057;BME280;36875;49.468;11.200;2023-05-23T11:25:41;97858.66;;;21.95;47.94
50057;BME280;36875;49.468;11.200;2023-05-23T11:28:07;97865.25;;;21.94;48.33
50057;BME280;36875;49.468;11.200;2023-05-23T11:30:34;97866.09;;;21.95;48.36
50057;BME280;36875;49.468;11.200;2023-05-23T11:33:06;97853.34;;;21.99;48.09
50057;BME280;36875;49.468;11.200;2023-05-23T11:35:34;97864.28;;;21.99;48.10
50057;BME280;36875;49.468;11.200;2023-05-23T11:38:01;97859.13;;;22.06;48.25
50057;BME280;36875;49.468;11.200;2023-05-23T11:40:28;97859.75;;;22.03;48.04
50057;BME280;36875;49.468;11.200;2023-05-23T11:42:54;97867.19;;;22.03;48.09
50057;BME280;36875;49.468;11.200;2023-05-23T11:45:22;97862.97;;;22.05;47.91
50057;BME280;36875;49.468;11.200;2023-05-23T11:47:48;97852.38;;;21.95;48.24
50057;BME280;36875;49.468;11.200;2023-05-23T11:50:14;97865.25;;;22.03;48.40
50057;BME280;36875;49.468;11.200;2023-05-23T11:52:41;97863.44;;;22.07;48.20
50057;BME280;36875;49.468;11.200;2023-05-23T11:55:08;97869.91;;;22.11;48.28
50057;BME280;36875;49.468;11.200;2023-05-23T11:57:37;97865.88;;;22.09;48.31
50057;BME280;36875;49.468;11.200;2023-05-23T12:00:04;97860.06;;;22.10;47.93
50057;BME280;36875;49.468;11.200;2023-05-23T12:02:30;97858.63;;;22.13;48.14
50057;BME280;36875;49.468;11.200;2023-05-23T12:04:56;97866.19;;;22.07;48.05
50057;BME280;36875;49.468;11.200;2023-05-23T12:07:21;97861.72;;;22.03;48.20
50057;BME280;36875;49.468;11.200;2023-05-23T12:09:48;97868.16;;;21.98;48.12
50057;BME280;36875;49.468;11.200;2023-05-23T12:12:13;97875.09;;;21.95;48.24
50057;BME280;36875;49.468;11.200;2023-05-23T12:14:40;97866.41;;;21.93;48.31
50057;BME280;36875;49.468;11.200;2023-05-23T12:17:10;97865.75;;;21.88;48.30
50057;BME280;36875;49.468;11.200;2023-05-23T12:19:35;97875.72;;;21.92;48.00
50057;BME280;36875;49.468;11.200;2023-05-23T12:22:07;97875.25;;;21.90;48.24
50057;BME280;36875;49.468;11.200;2023-05-23T12:24:33;97878.81;;;21.91;48.17
50057;BME280;36875;49.468;11.200;2023-05-23T12:27:01;97873.34;;;21.91;48.20
50057;BME280;36875;49.468;11.200;2023-05-23T12:29:28;97868.50;;;21.88;48.05
50057;BME280;36875;49.468;11.200;2023-05-23T12:31:56;97871.41;;;21.91;48.20
50057;BME280;36875;49.468;11.200;2023-05-23T12:34:22;97867.34;;;21.89;48.08
50057;BME280;36875;49.468;11.200;2023-05-23T12:36:47;97874.94;;;21.92;48.15
50057;BME280;36875;49.468;11.200;2023-05-23T12:39:14;97874.47;;;21.90;48.10
50057;BME280;36875;49.468;11.200;2023-05-23T12:41:40;97875.56;;;21.89;48.18
50057;BME280;36875;49.468;11.200;2023-05-23T12:44:08;97885.25;;;21.86;48.21
50057;BME280;36875;49.468;11.200;2023-05-23T12:46:34;97886.06;;;21.87;48.22
50057;BME280;36875;49.468;11.200;2023-05-23T12:48:59;97880.91;;;21.85;48.25